PWSweather.com
Personal Weather Stations
Station Observations
133525
French Quarters West Seneca , West Seneca, NY 14224

French Quarters West Seneca West Seneca, NY 14224

Lat: 42.850058, Lon: -78.799754

Elevation: 603

Station Type: Davis Vantage Vue pro2

http://westsenecaweather.com/

High Low Average
Temperature 44.1°F6.7°F 34.7°F1.5°F 37.7°F3.2°F
Dew Point 40.0°F4.4°F 32.6°F0.3°F 35.5°F1.9°F
Winds 10.4 mph ENE16.7 mph ENE 1.2 mph 1.9 mph 5.8 mph 9.3 mph
Wind Gusts 18.4 mph29.6 mph 3.5 mph5.6 mph 9.2 mph14.8 mph
Humidity 95% 83% 92%
Pressure 30.33 in1027.10 in 30.08 in1018.60 in -
Precipitation 0.93 in23.60 in - -
Hour Temp Dew Point Humidity Winds Wind Gusts Pressure Precip Precip Rate Daily Precip Total
12:00 AM 44.1°F6.7°C 39.3°F4.1°C 83% 5.8 mph NE9.3 kmh NE 10.4 mph16.7 kmh 30.08 in1018.6 mb - 0.00 in0.0 mm 0.00 in0.0 mm
12:10 AM 44.0°F6.7°C 39.2°F4.0°C 83% 4.6 mph ENE7.4 kmh ENE 10.4 mph16.7 kmh 30.08 in1018.6 mb - 0.00 in0.0 mm 0.00 in0.0 mm
12:20 AM 43.9°F6.6°C 39.4°F4.1°C 84% 5.8 mph ENE9.3 kmh ENE 11.5 mph18.5 kmh 30.09 in1019.0 mb - 0.00 in0.0 mm 0.00 in0.0 mm
12:30 AM 43.8°F6.6°C 39.0°F3.9°C 83% 5.8 mph ENE9.3 kmh ENE 9.2 mph14.8 kmh 30.08 in1018.6 mb - 0.00 in0.0 mm 0.00 in0.0 mm
12:40 AM 43.7°F6.5°C 39.2°F4.0°C 84% 2.3 mph NE3.7 kmh NE 4.6 mph7.4 kmh 30.09 in1019.0 mb - 0.00 in0.0 mm 0.00 in0.0 mm
12:50 AM 43.3°F6.3°C 39.4°F4.1°C 86% 4.6 mph NE7.4 kmh NE 6.9 mph11.1 kmh 30.09 in1019.0 mb - 0.05 in1.3 mm 0.05 in1.3 mm
01:00 AM 42.7°F5.9°C 39.7°F4.3°C 89% 3.5 mph NE5.6 kmh NE 5.8 mph9.3 kmh 30.11 in1019.6 mb - 0.05 in1.3 mm 0.10 in2.5 mm
01:10 AM 42.2°F5.7°C 39.5°F4.2°C 90% 5.8 mph NE9.3 kmh NE 9.2 mph14.8 kmh 30.10 in1019.3 mb - 0.03 in0.8 mm 0.13 in3.3 mm
01:20 AM 42.0°F5.6°C 39.6°F4.2°C 91% 2.3 mph ENE3.7 kmh ENE 3.5 mph5.6 kmh 30.09 in1019.0 mb - 0.04 in1.0 mm 0.16 in4.1 mm
01:30 AM 41.9°F5.5°C 39.7°F4.3°C 92% 2.3 mph NE3.7 kmh NE 3.5 mph5.6 kmh 30.10 in1019.3 mb - 0.03 in0.8 mm 0.18 in4.6 mm
01:40 AM 41.8°F5.4°C 39.6°F4.2°C 92% 2.3 mph ENE3.7 kmh ENE 3.5 mph5.6 kmh 30.08 in1018.6 mb - 0.02 in0.5 mm 0.20 in5.1 mm
01:50 AM 41.6°F5.3°C 39.7°F4.3°C 93% 2.3 mph NE3.7 kmh NE 4.6 mph7.4 kmh 30.10 in1019.3 mb - 0.01 in0.3 mm 0.21 in5.3 mm
02:00 AM 41.6°F5.3°C 39.7°F4.3°C 93% 2.3 mph NNE3.7 kmh NNE 4.6 mph7.4 kmh 30.10 in1019.3 mb - 0.01 in0.3 mm 0.22 in5.6 mm
02:10 AM 41.6°F5.3°C 39.7°F4.3°C 93% 2.3 mph NNE3.7 kmh NNE 3.5 mph5.6 kmh 30.11 in1019.6 mb - 0.01 in0.3 mm 0.23 in5.8 mm
02:20 AM 41.5°F5.3°C 39.7°F4.3°C 93% 2.3 mph ENE3.7 kmh ENE 3.5 mph5.6 kmh 30.10 in1019.3 mb - 0.02 in0.5 mm 0.25 in6.4 mm
02:30 AM 41.5°F5.3°C 39.9°F4.4°C 94% 2.3 mph ENE3.7 kmh ENE 4.6 mph7.4 kmh 30.09 in1019.0 mb - 0.06 in1.5 mm 0.31 in7.9 mm
02:40 AM 41.4°F5.2°C 39.8°F4.3°C 94% 2.3 mph NNE3.7 kmh NNE 3.5 mph5.6 kmh 30.11 in1019.6 mb - 0.05 in1.3 mm 0.34 in8.6 mm
02:50 AM 41.3°F5.2°C 39.7°F4.3°C 94% 3.5 mph NE5.6 kmh NE 4.6 mph7.4 kmh 30.10 in1019.3 mb - 0.00 in0.0 mm 0.34 in8.6 mm
03:00 AM 41.3°F5.2°C 39.7°F4.3°C 94% 2.3 mph NE3.7 kmh NE 4.6 mph7.4 kmh 30.09 in1019.0 mb - 0.00 in0.0 mm 0.34 in8.6 mm
03:10 AM 41.3°F5.2°C 40.0°F4.4°C 95% 2.3 mph NE3.7 kmh NE 3.5 mph5.6 kmh 30.11 in1019.6 mb - 0.01 in0.3 mm 0.35 in8.9 mm
03:20 AM 41.3°F5.2°C 39.7°F4.3°C 94% 2.3 mph NE3.7 kmh NE 3.5 mph5.6 kmh 30.11 in1019.6 mb - 0.00 in0.0 mm 0.35 in8.9 mm
03:30 AM 41.2°F5.1°C 39.6°F4.2°C 94% 2.3 mph NE3.7 kmh NE 3.5 mph5.6 kmh 30.11 in1019.6 mb - 0.00 in0.0 mm 0.35 in8.9 mm
03:40 AM 41.2°F5.1°C 39.9°F4.4°C 95% 2.3 mph NE3.7 kmh NE 3.5 mph5.6 kmh 30.10 in1019.3 mb - 0.00 in0.0 mm 0.35 in8.9 mm
03:50 AM 41.2°F5.1°C 39.9°F4.4°C 95% 1.2 mph NE1.9 kmh NE 3.5 mph5.6 kmh 30.10 in1019.3 mb - 0.00 in0.0 mm 0.35 in8.9 mm
04:00 AM 41.2°F5.1°C 39.9°F4.4°C 95% 2.3 mph NNE3.7 kmh NNE 3.5 mph5.6 kmh 30.11 in1019.6 mb - 0.00 in0.0 mm 0.35 in8.9 mm
04:10 AM 41.1°F5.1°C 39.8°F4.3°C 95% 2.3 mph NNE3.7 kmh NNE 4.6 mph7.4 kmh 30.10 in1019.3 mb - 0.00 in0.0 mm 0.35 in8.9 mm
04:20 AM 41.0°F5.0°C 39.7°F4.3°C 95% 4.6 mph N7.4 kmh N 4.6 mph7.4 kmh 30.11 in1019.6 mb - 0.05 in1.3 mm 0.40 in10.2 mm
04:30 AM 40.8°F4.9°C 39.4°F4.1°C 95% 5.8 mph N9.3 kmh N 8.1 mph13.0 kmh 30.12 in1020.0 mb - 0.03 in0.8 mm 0.41 in10.4 mm
04:40 AM 40.5°F4.7°C 39.2°F4.0°C 95% 3.5 mph N5.6 kmh N 5.8 mph9.3 kmh 30.11 in1019.6 mb - 0.00 in0.0 mm 0.41 in10.4 mm
04:50 AM 40.2°F4.6°C 38.9°F3.8°C 95% 3.5 mph NE5.6 kmh NE 6.9 mph11.1 kmh 30.10 in1019.3 mb - 0.05 in1.3 mm 0.46 in11.7 mm
05:00 AM 40.1°F4.5°C 38.8°F3.8°C 95% 4.6 mph NNE7.4 kmh NNE 4.6 mph7.4 kmh 30.11 in1019.6 mb - 0.00 in0.0 mm 0.46 in11.7 mm
05:10 AM 39.8°F4.3°C 38.5°F3.6°C 95% 4.6 mph NE7.4 kmh NE 6.9 mph11.1 kmh 30.11 in1019.6 mb - 0.00 in0.0 mm 0.46 in11.7 mm
05:20 AM 39.7°F4.3°C 38.4°F3.6°C 95% 4.6 mph NNE7.4 kmh NNE 4.6 mph7.4 kmh 30.11 in1019.6 mb - 0.00 in0.0 mm 0.46 in11.7 mm
05:30 AM 39.5°F4.2°C 38.2°F3.4°C 95% 3.5 mph NNE5.6 kmh NNE 3.5 mph5.6 kmh 30.11 in1019.6 mb - 0.00 in0.0 mm 0.46 in11.7 mm
05:40 AM 39.3°F4.1°C 38.0°F3.3°C 95% 4.6 mph NE7.4 kmh NE 6.9 mph11.1 kmh 30.12 in1020.0 mb - 0.00 in0.0 mm 0.46 in11.7 mm
05:50 AM 39.2°F4.0°C 37.9°F3.3°C 95% 4.6 mph NNE7.4 kmh NNE 9.2 mph14.8 kmh 30.12 in1020.0 mb - 0.00 in0.0 mm 0.46 in11.7 mm
06:00 AM 38.9°F3.8°C 37.6°F3.1°C 95% 4.6 mph NNE7.4 kmh NNE 6.9 mph11.1 kmh 30.12 in1020.0 mb - 0.00 in0.0 mm 0.46 in11.7 mm
06:10 AM 38.7°F3.7°C 37.1°F2.8°C 94% 6.9 mph NE11.1 kmh NE 10.4 mph16.7 kmh 30.12 in1020.0 mb - 0.00 in0.0 mm 0.46 in11.7 mm
06:20 AM 38.6°F3.7°C 37.0°F2.8°C 94% 3.5 mph NE5.6 kmh NE 9.2 mph14.8 kmh 30.12 in1020.0 mb - 0.00 in0.0 mm 0.46 in11.7 mm
06:30 AM 38.3°F3.5°C 36.7°F2.6°C 94% 6.9 mph NE11.1 kmh NE 12.7 mph20.4 kmh 30.12 in1020.0 mb - 0.01 in0.3 mm 0.47 in11.9 mm
06:40 AM 37.9°F3.3°C 36.3°F2.4°C 94% 5.8 mph NE9.3 kmh NE 8.1 mph13.0 kmh 30.12 in1020.0 mb - 0.01 in0.3 mm 0.48 in12.2 mm
06:50 AM 37.5°F3.1°C 36.0°F2.2°C 94% 5.8 mph NE9.3 kmh NE 9.2 mph14.8 kmh 30.12 in1020.0 mb - 0.01 in0.3 mm 0.49 in12.4 mm
07:00 AM 37.4°F3.0°C 35.8°F2.1°C 94% 5.8 mph ENE9.3 kmh ENE 8.1 mph13.0 kmh 30.13 in1020.3 mb - 0.00 in0.0 mm 0.49 in12.4 mm
07:10 AM 37.3°F2.9°C 35.7°F2.1°C 94% 4.6 mph NE7.4 kmh NE 6.9 mph11.1 kmh 30.14 in1020.7 mb - 0.00 in0.0 mm 0.49 in12.4 mm
07:20 AM 37.3°F2.9°C 35.7°F2.1°C 94% 4.6 mph NE7.4 kmh NE 4.6 mph7.4 kmh 30.15 in1021.0 mb - 0.00 in0.0 mm 0.49 in12.4 mm
07:30 AM 37.2°F2.9°C 35.6°F2.0°C 94% 5.8 mph NE9.3 kmh NE 10.4 mph16.7 kmh 30.15 in1021.0 mb - 0.00 in0.0 mm 0.49 in12.4 mm
07:40 AM 37.1°F2.8°C 35.5°F1.9°C 94% 4.6 mph NE7.4 kmh NE 6.9 mph11.1 kmh 30.14 in1020.7 mb - 0.01 in0.3 mm 0.50 in12.7 mm
07:50 AM 37.0°F2.8°C 35.4°F1.9°C 94% 5.8 mph NE9.3 kmh NE 10.4 mph16.7 kmh 30.15 in1021.0 mb - 0.00 in0.0 mm 0.50 in12.7 mm
08:00 AM 37.0°F2.8°C 35.4°F1.9°C 94% 6.9 mph NE11.1 kmh NE 9.2 mph14.8 kmh 30.16 in1021.3 mb - 0.00 in0.0 mm 0.50 in12.7 mm
08:10 AM 36.9°F2.7°C 35.3°F1.8°C 94% 5.8 mph NNE9.3 kmh NNE 9.2 mph14.8 kmh 30.16 in1021.3 mb - 0.00 in0.0 mm 0.50 in12.7 mm
08:20 AM 36.8°F2.7°C 35.3°F1.8°C 94% 5.8 mph N9.3 kmh N 8.1 mph13.0 kmh 30.18 in1022.0 mb - 0.01 in0.3 mm 0.51 in13.0 mm
08:30 AM 36.8°F2.7°C 35.2°F1.8°C 94% 5.8 mph NNE9.3 kmh NNE 9.2 mph14.8 kmh 30.19 in1022.4 mb - 0.00 in0.0 mm 0.51 in13.0 mm
08:40 AM 36.7°F2.6°C 35.1°F1.7°C 94% 3.5 mph NE5.6 kmh NE 6.9 mph11.1 kmh 30.19 in1022.4 mb - 0.00 in0.0 mm 0.51 in13.0 mm
08:50 AM 36.5°F2.5°C 35.0°F1.7°C 94% 8.1 mph NNE13.0 kmh NNE 11.5 mph18.5 kmh 30.19 in1022.4 mb - 0.01 in0.3 mm 0.52 in13.2 mm
09:00 AM 36.3°F2.4°C 34.7°F1.5°C 94% 4.6 mph NE7.4 kmh NE 10.4 mph16.7 kmh 30.20 in1022.7 mb - 0.00 in0.0 mm 0.52 in13.2 mm
09:10 AM 36.1°F2.3°C 34.5°F1.4°C 94% 4.6 mph NNE7.4 kmh NNE 9.2 mph14.8 kmh 30.20 in1022.7 mb - 0.00 in0.0 mm 0.52 in13.2 mm
09:20 AM 35.9°F2.2°C 34.3°F1.3°C 94% 6.9 mph NE11.1 kmh NE 10.4 mph16.7 kmh 30.21 in1023.0 mb - 0.01 in0.3 mm 0.53 in13.5 mm
09:30 AM 35.9°F2.2°C 34.3°F1.3°C 94% 3.5 mph NE5.6 kmh NE 6.9 mph11.1 kmh 30.22 in1023.4 mb - 0.01 in0.3 mm 0.54 in13.7 mm
09:40 AM 35.7°F2.1°C 34.1°F1.2°C 94% 9.2 mph ENE14.8 kmh ENE 11.5 mph18.5 kmh 30.21 in1023.0 mb - 0.04 in1.0 mm 0.58 in14.7 mm
09:50 AM 35.6°F2.0°C 34.0°F1.1°C 94% 5.8 mph NE9.3 kmh NE 9.2 mph14.8 kmh 30.22 in1023.4 mb - 0.03 in0.8 mm 0.60 in15.2 mm
10:00 AM 35.4°F1.9°C 33.8°F1.0°C 94% 9.2 mph NE14.8 kmh NE 13.8 mph22.2 kmh 30.22 in1023.4 mb - 0.02 in0.5 mm 0.62 in15.7 mm
10:10 AM 35.4°F1.9°C 33.8°F1.0°C 94% 6.9 mph NE11.1 kmh NE 10.4 mph16.7 kmh 30.23 in1023.7 mb - 0.02 in0.5 mm 0.64 in16.3 mm
10:20 AM 35.4°F1.9°C 33.8°F1.0°C 94% 5.8 mph NE9.3 kmh NE 10.4 mph16.7 kmh 30.23 in1023.7 mb - 0.00 in0.0 mm 0.64 in16.3 mm
10:30 AM 35.5°F1.9°C 33.9°F1.1°C 94% 4.6 mph ENE7.4 kmh ENE 8.1 mph13.0 kmh 30.24 in1024.0 mb - 0.01 in0.3 mm 0.65 in16.5 mm
10:40 AM 35.5°F1.9°C 33.9°F1.1°C 94% 5.8 mph ENE9.3 kmh ENE 11.5 mph18.5 kmh 30.24 in1024.0 mb - 0.01 in0.3 mm 0.66 in16.8 mm
10:50 AM 35.5°F1.9°C 33.9°F1.1°C 94% 6.9 mph NE11.1 kmh NE 11.5 mph18.5 kmh 30.25 in1024.4 mb - 0.01 in0.3 mm 0.67 in17.0 mm
11:00 AM 35.4°F1.9°C 33.8°F1.0°C 94% 9.2 mph NE14.8 kmh NE 11.5 mph18.5 kmh 30.25 in1024.4 mb - 0.02 in0.5 mm 0.69 in17.5 mm
11:10 AM 35.6°F2.0°C 34.0°F1.1°C 94% 6.9 mph NE11.1 kmh NE 11.5 mph18.5 kmh 30.27 in1025.1 mb - 0.00 in0.0 mm 0.69 in17.5 mm
11:20 AM 35.6°F2.0°C 33.8°F1.0°C 93% 5.8 mph NE9.3 kmh NE 11.5 mph18.5 kmh 30.27 in1025.1 mb - 0.00 in0.0 mm 0.69 in17.5 mm
11:30 AM 35.6°F2.0°C 33.8°F1.0°C 93% 4.6 mph NE7.4 kmh NE 6.9 mph11.1 kmh 30.28 in1025.4 mb - 0.01 in0.3 mm 0.70 in17.8 mm
11:40 AM 35.8°F2.1°C 34.0°F1.1°C 93% 3.5 mph NE5.6 kmh NE 5.8 mph9.3 kmh 30.28 in1025.4 mb - 0.00 in0.0 mm 0.70 in17.8 mm
11:50 AM 35.9°F2.2°C 34.1°F1.2°C 93% 6.9 mph NE11.1 kmh NE 12.7 mph20.4 kmh 30.29 in1025.7 mb - 0.01 in0.3 mm 0.71 in18.0 mm
12:00 PM 35.8°F2.1°C 34.0°F1.1°C 93% 8.1 mph NE13.0 kmh NE 16.1 mph25.9 kmh 30.29 in1025.7 mb - 0.00 in0.0 mm 0.71 in18.0 mm
12:10 PM 35.8°F2.1°C 34.0°F1.1°C 93% 4.6 mph NE7.4 kmh NE 9.2 mph14.8 kmh 30.30 in1026.1 mb - 0.00 in0.0 mm 0.71 in18.0 mm
12:20 PM 35.7°F2.1°C 33.6°F0.9°C 92% 8.1 mph NE13.0 kmh NE 11.5 mph18.5 kmh 30.29 in1025.7 mb - 0.01 in0.3 mm 0.72 in18.3 mm
12:30 PM 35.7°F2.1°C 33.6°F0.9°C 92% 8.1 mph NE13.0 kmh NE 12.7 mph20.4 kmh 30.30 in1026.1 mb - 0.01 in0.3 mm 0.73 in18.5 mm
12:40 PM 35.6°F2.0°C 33.5°F0.8°C 92% 6.9 mph E11.1 kmh E 11.5 mph18.5 kmh 30.30 in1026.1 mb - 0.01 in0.3 mm 0.74 in18.8 mm
12:50 PM 35.6°F2.0°C 33.8°F1.0°C 93% 6.9 mph ENE11.1 kmh ENE 9.2 mph14.8 kmh 30.29 in1025.7 mb - 0.01 in0.3 mm 0.75 in19.1 mm
01:00 PM 35.7°F2.1°C 33.9°F1.1°C 93% 6.9 mph E11.1 kmh E 8.1 mph13.0 kmh 30.29 in1025.7 mb - 0.01 in0.3 mm 0.76 in19.3 mm
01:10 PM 35.9°F2.2°C 34.1°F1.2°C 93% 8.1 mph ENE13.0 kmh ENE 10.4 mph16.7 kmh 30.29 in1025.7 mb - 0.00 in0.0 mm 0.76 in19.3 mm
01:20 PM 36.2°F2.3°C 34.4°F1.3°C 93% 4.6 mph E7.4 kmh E 8.1 mph13.0 kmh 30.29 in1025.7 mb - 0.01 in0.3 mm 0.77 in19.6 mm
01:30 PM 36.4°F2.4°C 34.6°F1.4°C 93% 4.6 mph ENE7.4 kmh ENE 5.8 mph9.3 kmh 30.30 in1026.1 mb - 0.01 in0.3 mm 0.78 in19.8 mm
01:40 PM 36.4°F2.4°C 34.6°F1.4°C 93% 6.9 mph NE11.1 kmh NE 10.4 mph16.7 kmh 30.30 in1026.1 mb - 0.01 in0.3 mm 0.78 in19.8 mm
01:50 PM 36.4°F2.4°C 34.3°F1.3°C 92% 5.8 mph NE9.3 kmh NE 11.5 mph18.5 kmh 30.30 in1026.1 mb - 0.01 in0.3 mm 0.79 in20.1 mm
02:00 PM 36.2°F2.3°C 34.4°F1.3°C 93% 5.8 mph NE9.3 kmh NE 8.1 mph13.0 kmh 30.30 in1026.1 mb - 0.01 in0.3 mm 0.80 in20.3 mm
02:10 PM 36.1°F2.3°C 34.3°F1.3°C 93% 6.9 mph NE11.1 kmh NE 9.2 mph14.8 kmh 30.29 in1025.7 mb - 0.02 in0.5 mm 0.82 in20.8 mm
02:20 PM 36.1°F2.3°C 34.3°F1.3°C 93% 4.6 mph NE7.4 kmh NE 11.5 mph18.5 kmh 30.28 in1025.4 mb - 0.02 in0.5 mm 0.83 in21.1 mm
02:30 PM 35.9°F2.2°C 34.1°F1.2°C 93% 6.9 mph NE11.1 kmh NE 11.5 mph18.5 kmh 30.29 in1025.7 mb - 0.00 in0.0 mm 0.83 in21.1 mm
02:40 PM 36.2°F2.3°C 34.4°F1.3°C 93% 6.9 mph E11.1 kmh E 9.2 mph14.8 kmh 30.28 in1025.4 mb - 0.01 in0.3 mm 0.84 in21.3 mm
02:50 PM 36.4°F2.4°C 34.6°F1.4°C 93% 4.6 mph E7.4 kmh E 9.2 mph14.8 kmh 30.28 in1025.4 mb - 0.00 in0.0 mm 0.84 in21.3 mm
03:00 PM 36.7°F2.6°C 34.6°F1.4°C 92% 5.8 mph E9.3 kmh E 10.4 mph16.7 kmh 30.30 in1026.1 mb - 0.00 in0.0 mm 0.84 in21.3 mm
03:10 PM 36.9°F2.7°C 34.5°F1.4°C 91% 6.9 mph ENE11.1 kmh ENE 9.2 mph14.8 kmh 30.30 in1026.1 mb - 0.00 in0.0 mm 0.84 in21.3 mm
03:20 PM 37.0°F2.8°C 34.3°F1.3°C 90% 6.9 mph NE11.1 kmh NE 8.1 mph13.0 kmh 30.30 in1026.1 mb - 0.00 in0.0 mm 0.84 in21.3 mm
03:30 PM 37.1°F2.8°C 34.5°F1.4°C 90% 6.9 mph E11.1 kmh E 10.4 mph16.7 kmh 30.31 in1026.4 mb - 0.00 in0.0 mm 0.84 in21.3 mm
03:40 PM 37.0°F2.8°C 34.3°F1.3°C 90% 8.1 mph NE13.0 kmh NE 10.4 mph16.7 kmh 30.29 in1025.7 mb - 0.00 in0.0 mm 0.84 in21.3 mm
03:50 PM 36.9°F2.7°C 34.3°F1.3°C 90% 5.8 mph NE9.3 kmh NE 11.5 mph18.5 kmh 30.30 in1026.1 mb - 0.00 in0.0 mm 0.84 in21.3 mm
04:00 PM 36.9°F2.7°C 34.3°F1.3°C 90% 5.8 mph NE9.3 kmh NE 11.5 mph18.5 kmh 30.31 in1026.4 mb - 0.00 in0.0 mm 0.84 in21.3 mm
04:10 PM 36.7°F2.6°C 34.1°F1.2°C 90% 5.8 mph NNE9.3 kmh NNE 11.5 mph18.5 kmh 30.32 in1026.8 mb - 0.00 in0.0 mm 0.84 in21.3 mm
04:20 PM 36.8°F2.7°C 34.2°F1.2°C 90% 9.2 mph ENE14.8 kmh ENE 12.7 mph20.4 kmh 30.31 in1026.4 mb - 0.00 in0.0 mm 0.84 in21.3 mm
04:30 PM 36.9°F2.7°C 34.5°F1.4°C 91% 5.8 mph ENE9.3 kmh ENE 10.4 mph16.7 kmh 30.30 in1026.1 mb - 0.00 in0.0 mm 0.84 in21.3 mm
04:40 PM 37.0°F2.8°C 34.6°F1.4°C 91% 6.9 mph E11.1 kmh E 8.1 mph13.0 kmh 30.31 in1026.4 mb - 0.00 in0.0 mm 0.84 in21.3 mm
04:50 PM 37.4°F3.0°C 34.8°F1.6°C 90% 6.9 mph ENE11.1 kmh ENE 11.5 mph18.5 kmh 30.31 in1026.4 mb - 0.00 in0.0 mm 0.84 in21.3 mm
05:00 PM 37.8°F3.2°C 35.1°F1.7°C 90% 6.9 mph ENE11.1 kmh ENE 11.5 mph18.5 kmh 30.30 in1026.1 mb - 0.00 in0.0 mm 0.84 in21.3 mm
05:10 PM 37.9°F3.3°C 34.7°F1.5°C 88% 8.1 mph NE13.0 kmh NE 13.8 mph22.2 kmh 30.30 in1026.1 mb - 0.00 in0.0 mm 0.84 in21.3 mm
05:20 PM 38.1°F3.4°C 34.9°F1.6°C 88% 5.8 mph E9.3 kmh E 11.5 mph18.5 kmh 30.31 in1026.4 mb - 0.00 in0.0 mm 0.84 in21.3 mm
05:30 PM 37.9°F3.3°C 34.7°F1.5°C 88% 9.2 mph NE14.8 kmh NE 15.0 mph24.1 kmh 30.30 in1026.1 mb - 0.00 in0.0 mm 0.84 in21.3 mm
05:40 PM 37.8°F3.2°C 34.5°F1.4°C 88% 9.2 mph NE14.8 kmh NE 15.0 mph24.1 kmh 30.30 in1026.1 mb - 0.00 in0.0 mm 0.84 in21.3 mm
05:50 PM 37.6°F3.1°C 34.7°F1.5°C 89% 5.8 mph NE9.3 kmh NE 12.7 mph20.4 kmh 30.31 in1026.4 mb - 0.00 in0.0 mm 0.84 in21.3 mm
06:00 PM 37.4°F3.0°C 34.5°F1.4°C 89% 8.1 mph E13.0 kmh E 12.7 mph20.4 kmh 30.30 in1026.1 mb - 0.00 in0.0 mm 0.84 in21.3 mm
06:10 PM 37.1°F2.8°C 34.4°F1.3°C 90% 4.6 mph NE7.4 kmh NE 9.2 mph14.8 kmh 30.31 in1026.4 mb - 0.00 in0.0 mm 0.84 in21.3 mm
06:20 PM 37.0°F2.8°C 34.3°F1.3°C 90% 8.1 mph NE13.0 kmh NE 11.5 mph18.5 kmh 30.30 in1026.1 mb - 0.00 in0.0 mm 0.84 in21.3 mm
06:30 PM 36.9°F2.7°C 34.2°F1.2°C 90% 6.9 mph ENE11.1 kmh ENE 11.5 mph18.5 kmh 30.30 in1026.1 mb - 0.00 in0.0 mm 0.84 in21.3 mm
06:40 PM 36.8°F2.7°C 34.1°F1.2°C 90% 4.6 mph NE7.4 kmh NE 6.9 mph11.1 kmh 30.31 in1026.4 mb - 0.00 in0.0 mm 0.84 in21.3 mm
06:50 PM 36.7°F2.6°C 34.0°F1.1°C 90% 5.8 mph NE9.3 kmh NE 6.9 mph11.1 kmh 30.33 in1027.1 mb - 0.00 in0.0 mm 0.84 in21.3 mm
07:00 PM 36.8°F2.7°C 34.1°F1.2°C 90% 5.8 mph NE9.3 kmh NE 9.2 mph14.8 kmh 30.32 in1026.8 mb - 0.00 in0.0 mm 0.84 in21.3 mm
07:10 PM 36.5°F2.5°C 33.8°F1.0°C 90% 9.2 mph E14.8 kmh E 12.7 mph20.4 kmh 30.31 in1026.4 mb - 0.00 in0.0 mm 0.84 in21.3 mm
07:20 PM 36.3°F2.4°C 33.9°F1.1°C 91% 6.9 mph ENE11.1 kmh ENE 13.8 mph22.2 kmh 30.30 in1026.1 mb - 0.00 in0.0 mm 0.84 in21.3 mm
07:30 PM 36.4°F2.4°C 33.7°F0.9°C 90% 6.9 mph ENE11.1 kmh ENE 11.5 mph18.5 kmh 30.31 in1026.4 mb - 0.00 in0.0 mm 0.84 in21.3 mm
07:40 PM 36.3°F2.4°C 33.7°F0.9°C 90% 3.5 mph ENE5.6 kmh ENE 6.9 mph11.1 kmh 30.32 in1026.8 mb - 0.00 in0.0 mm 0.84 in21.3 mm
07:50 PM 36.3°F2.4°C 33.9°F1.1°C 91% 5.8 mph NE9.3 kmh NE 9.2 mph14.8 kmh 30.32 in1026.8 mb - 0.00 in0.0 mm 0.84 in21.3 mm
08:00 PM 36.3°F2.4°C 33.9°F1.1°C 91% 5.8 mph NE9.3 kmh NE 10.4 mph16.7 kmh 30.31 in1026.4 mb - 0.00 in0.0 mm 0.84 in21.3 mm
08:10 PM 36.2°F2.3°C 33.5°F0.8°C 90% 8.1 mph ENE13.0 kmh ENE 10.4 mph16.7 kmh 30.30 in1026.1 mb - 0.00 in0.0 mm 0.84 in21.3 mm
08:20 PM 36.2°F2.3°C 33.5°F0.8°C 90% 6.9 mph ENE11.1 kmh ENE 8.1 mph13.0 kmh 30.31 in1026.4 mb - 0.00 in0.0 mm 0.84 in21.3 mm
08:30 PM 36.3°F2.4°C 33.6°F0.9°C 90% 9.2 mph E14.8 kmh E 12.7 mph20.4 kmh 30.31 in1026.4 mb - 0.00 in0.0 mm 0.84 in21.3 mm
08:40 PM 36.2°F2.3°C 33.5°F0.8°C 90% 6.9 mph ENE11.1 kmh ENE 9.2 mph14.8 kmh 30.32 in1026.8 mb - 0.00 in0.0 mm 0.84 in21.3 mm
08:50 PM 36.2°F2.3°C 33.5°F0.8°C 90% 6.9 mph NE11.1 kmh NE 12.7 mph20.4 kmh 30.32 in1026.8 mb - 0.00 in0.0 mm 0.84 in21.3 mm
09:00 PM 35.9°F2.2°C 33.3°F0.7°C 90% 8.1 mph ENE13.0 kmh ENE 11.5 mph18.5 kmh 30.32 in1026.8 mb - 0.00 in0.0 mm 0.84 in21.3 mm
09:10 PM 35.9°F2.2°C 33.3°F0.7°C 90% 9.2 mph NE14.8 kmh NE 12.7 mph20.4 kmh 30.33 in1027.1 mb - 0.00 in0.0 mm 0.84 in21.3 mm
09:20 PM 35.9°F2.2°C 33.2°F0.7°C 90% 6.9 mph ENE11.1 kmh ENE 11.5 mph18.5 kmh 30.33 in1027.1 mb - 0.00 in0.0 mm 0.84 in21.3 mm
09:30 PM 35.8°F2.1°C 33.2°F0.7°C 90% 10.4 mph ENE16.7 kmh ENE 18.4 mph29.6 kmh 30.33 in1027.1 mb - 0.00 in0.0 mm 0.84 in21.3 mm
09:40 PM 35.7°F2.1°C 33.1°F0.6°C 90% 10.4 mph E16.7 kmh E 12.7 mph20.4 kmh 30.32 in1026.8 mb - 0.00 in0.0 mm 0.84 in21.3 mm
09:50 PM 35.7°F2.1°C 33.1°F0.6°C 90% 6.9 mph ENE11.1 kmh ENE 10.4 mph16.7 kmh 30.32 in1026.8 mb - 0.00 in0.0 mm 0.84 in21.3 mm
10:00 PM 35.6°F2.0°C 33.0°F0.6°C 90% 10.4 mph ENE16.7 kmh ENE 15.0 mph24.1 kmh 30.32 in1026.8 mb - 0.00 in0.0 mm 0.84 in21.3 mm
10:10 PM 35.5°F1.9°C 32.9°F0.5°C 90% 5.8 mph NE9.3 kmh NE 9.2 mph14.8 kmh 30.32 in1026.8 mb - 0.00 in0.0 mm 0.84 in21.3 mm
10:20 PM 35.4°F1.9°C 32.8°F0.4°C 90% 6.9 mph E11.1 kmh E 10.4 mph16.7 kmh 30.32 in1026.8 mb - 0.00 in0.0 mm 0.84 in21.3 mm
10:30 PM 35.3°F1.8°C 32.9°F0.5°C 91% 4.6 mph NE7.4 kmh NE 9.2 mph14.8 kmh 30.33 in1027.1 mb - 0.00 in0.0 mm 0.84 in21.3 mm
10:40 PM 35.2°F1.8°C 32.8°F0.4°C 91% 8.1 mph NE13.0 kmh NE 10.4 mph16.7 kmh 30.33 in1027.1 mb - 0.00 in0.0 mm 0.84 in21.3 mm
10:50 PM 35.1°F1.7°C 32.7°F0.4°C 91% 6.9 mph NE11.1 kmh NE 10.4 mph16.7 kmh 30.33 in1027.1 mb - 0.00 in0.0 mm 0.84 in21.3 mm
11:00 PM 35.0°F1.7°C 32.6°F0.3°C 91% 6.9 mph ENE11.1 kmh ENE 9.2 mph14.8 kmh 30.32 in1026.8 mb - 0.00 in0.0 mm 0.84 in21.3 mm
11:10 PM 34.9°F1.6°C 32.8°F0.4°C 92% 8.1 mph NE13.0 kmh NE 9.2 mph14.8 kmh 30.32 in1026.8 mb - 0.00 in0.0 mm 0.84 in21.3 mm
11:20 PM 34.9°F1.6°C 32.8°F0.4°C 92% 5.8 mph NE9.3 kmh NE 11.5 mph18.5 kmh 30.31 in1026.4 mb - 0.00 in0.0 mm 0.84 in21.3 mm
11:30 PM 34.8°F1.6°C 32.7°F0.4°C 92% 8.1 mph ENE13.0 kmh ENE 13.8 mph22.2 kmh 30.32 in1026.8 mb - 0.00 in0.0 mm 0.84 in21.3 mm
11:40 PM 34.7°F1.5°C 32.6°F0.3°C 92% 8.1 mph NE13.0 kmh NE 17.3 mph27.8 kmh 30.31 in1026.4 mb - 0.00 in0.0 mm 0.84 in21.3 mm
11:50 PM 34.7°F1.5°C 32.6°F0.3°C 92% 5.8 mph NE9.3 kmh NE 10.4 mph16.7 kmh 30.30 in1026.1 mb - 0.00 in0.0 mm 0.84 in21.3 mm